Tatum, New Mexico
Current Conditions -  °F | °C
As of 5:35 PM on Friday 24 Oct 2014 (Local Time) from KHOB Reporting Station
Clear Clear  
Wind Chill: 79°   Ceiling: Unl
Heat Index: 79°   Visibility: 10mi
Dew Point: 48°   Wind: 0mph
Humidity: 34%   Direction: NA
Pressure: 30.15"   Gusts: NA
Location:  33.26°N, 103.32°W
Report Text: KHOB 242335Z AUTO 00000KT 10SM CLR 26/09 A3015 RMK AO2
Loading
Personal Weather Stations






























Interactive Weather Map
Tropical Storm Tracking
New forecast layout! Learn more

10-Day Weather Forecast

Advertisements
Track Severe Weather on mobile